Wetterdaten: Woche 20.07.09 - 26.07.09 (KW30)
Datum Zeit Temperatur Luftfeuchte Luftdruck Niederschlag Windrichtung Wind
20.07.2009 00:00 13,8 C 80 % 1019,4 hPa 0,0 l/m W 4,0 km/h (1 Bft)
20.07.2009 01:00 13,2 C 83 % 1019,5 hPa 0,0 l/m W-SW 4,7 km/h (1 Bft)
20.07.2009 02:00 13,8 C 78 % 1019,5 hPa 0,0 l/m W-SW 8,8 km/h (2 Bft)
20.07.2009 03:00 13,2 C 83 % 1019,3 hPa 0,0 l/m SW 4,5 km/h (1 Bft)
20.07.2009 04:00 12,4 C 88 % 1019,2 hPa 0,0 l/m N 1,1 km/h (0 Bft)
20.07.2009 05:00 11,8 C 90 % 1019,2 hPa 0,0 l/m N 0,8 km/h (0 Bft)
20.07.2009 06:00 11,8 C 91 % 1019,1 hPa 0,0 l/m N 2,3 km/h (1 Bft)
20.07.2009 07:00 13,0 C 89 % 1019,2 hPa 0,0 l/m SW 3,7 km/h (1 Bft)
20.07.2009 08:00 15,9 C 80 % 1018,9 hPa 0,0 l/m S-SW 13,8 km/h (3 Bft)
20.07.2009 09:00 18,2 C 65 % 1019,0 hPa 0,0 l/m W 24,3 km/h (4 Bft)
20.07.2009 10:00 19,3 C 60 % 1018,9 hPa 0,0 l/m SW 27,5 km/h (4 Bft)
20.07.2009 11:00 20,3 C 59 % 1019,0 hPa 0,0 l/m W-NW 27,9 km/h (4 Bft)
20.07.2009 12:00 20,3 C 59 % 1018,6 hPa 0,0 l/m W 26,8 km/h (4 Bft)
20.07.2009 13:00 18,7 C 72 % 1018,5 hPa 0,0 l/m SW 12,5 km/h (3 Bft)
20.07.2009 14:00 21,3 C 59 % 1018,2 hPa 0,0 l/m SW 27,2 km/h (4 Bft)
20.07.2009 15:00 21,4 C 57 % 1017,9 hPa 0,0 l/m W 25,3 km/h (4 Bft)
20.07.2009 16:00 22,5 C 54 % 1017,5 hPa 0,0 l/m W 20,8 km/h (4 Bft)
20.07.2009 17:00 22,4 C 54 % 1017,0 hPa 0,0 l/m W-SW 18,8 km/h (3 Bft)
20.07.2009 18:00 22,3 C 54 % 1016,7 hPa 0,0 l/m W 12,9 km/h (3 Bft)
20.07.2009 19:00 21,5 C 55 % 1016,4 hPa 0,0 l/m W-SW 11,7 km/h (2 Bft)
20.07.2009 20:00 19,6 C 65 % 1016,5 hPa 0,0 l/m W-SW 5,3 km/h (1 Bft)
20.07.2009 21:00 16,7 C 81 % 1016,7 hPa 0,0 l/m N 0,5 km/h (0 Bft)
20.07.2009 22:00 15,4 C 86 % 1016,9 hPa 0,0 l/m N 0,0 km/h (0 Bft)
20.07.2009 23:00 14,5 C 90 % 1016,9 hPa 0,0 l/m N 0,8 km/h (0 Bft)
21.07.2009 00:00 13,8 C 91 % 1017,2 hPa 0,0 l/m N 0,7 km/h (0 Bft)
21.07.2009 01:00 13,2 C 93 % 1017,1 hPa 0,0 l/m N 0,1 km/h (0 Bft)
21.07.2009 02:00 12,8 C 95 % 1016,7 hPa 0,0 l/m N 0,0 km/h (0 Bft)
21.07.2009 03:00 12,3 C 94 % 1016,4 hPa 0,0 l/m N 0,0 km/h (0 Bft)
21.07.2009 04:00 11,9 C 95 % 1016,0 hPa 0,0 l/m N 0,3 km/h (0 Bft)
21.07.2009 05:00 11,8 C 96 % 1015,8 hPa 0,0 l/m N 0,0 km/h (0 Bft)
21.07.2009 06:00 12,2 C 96 % 1015,5 hPa 0,0 l/m N 0,7 km/h (0 Bft)
21.07.2009 07:00 13,4 C 94 % 1015,4 hPa 0,0 l/m W-SW 0,5 km/h (0 Bft)
21.07.2009 08:00 16,5 C 85 % 1015,5 hPa 0,0 l/m SW 3,5 km/h (1 Bft)
21.07.2009 09:00 19,6 C 74 % 1015,6 hPa 0,0 l/m S-SW 11,7 km/h (2 Bft)
21.07.2009 10:00 21,7 C 70 % 1015,3 hPa 0,0 l/m SW 16,5 km/h (3 Bft)
21.07.2009 11:00 24,0 C 62 % 1014,9 hPa 0,0 l/m S 12,1 km/h (2 Bft)
21.07.2009 12:00 25,7 C 56 % 1014,6 hPa 0,0 l/m S 19,8 km/h (4 Bft)
21.07.2009 13:00 26,9 C 51 % 1014,1 hPa 0,0 l/m W-SW 17,3 km/h (3 Bft)
21.07.2009 14:00 28,0 C 45 % 1013,7 hPa 0,0 l/m W-SW 18,8 km/h (3 Bft)
21.07.2009 15:00 28,5 C 46 % 1013,2 hPa 0,0 l/m W-SW 18,6 km/h (3 Bft)
21.07.2009 16:00 28,6 C 46 % 1012,7 hPa 0,0 l/m W 16,5 km/h (3 Bft)
21.07.2009 17:00 28,6 C 43 % 1012,0 hPa 0,0 l/m W-SW 16,2 km/h (3 Bft)
21.07.2009 18:00 28,0 C 45 % 1011,7 hPa 0,0 l/m SW 15,2 km/h (3 Bft)
21.07.2009 19:00 26,4 C 52 % 1011,3 hPa 0,0 l/m W-SW 7,9 km/h (2 Bft)
21.07.2009 20:00 23,9 C 62 % 1010,9 hPa 0,0 l/m W-SW 5,5 km/h (1 Bft)
21.07.2009 21:00 21,8 C 68 % 1011,1 hPa 0,0 l/m W 3,3 km/h (1 Bft)
21.07.2009 22:00 19,7 C 80 % 1011,2 hPa 0,0 l/m N 0,3 km/h (0 Bft)
21.07.2009 23:00 18,5 C 86 % 1010,9 hPa 0,0 l/m N 0,3 km/h (0 Bft)
22.07.2009 00:00 17,5 C 90 % 1010,7 hPa 0,0 l/m N 0,1 km/h (0 Bft)
22.07.2009 01:00 16,6 C 92 % 1010,2 hPa 0,0 l/m N 0,0 km/h (0 Bft)
22.07.2009 02:00 16,0 C 93 % 1010,1 hPa 0,0 l/m N 0,0 km/h (0 Bft)
22.07.2009 03:00 15,6 C 94 % 1010,1 hPa 0,0 l/m N 0,0 km/h (0 Bft)
22.07.2009 04:00 15,0 C 94 % 1009,6 hPa 0,0 l/m N 0,1 km/h (0 Bft)
22.07.2009 05:00 14,4 C 95 % 1009,5 hPa 0,0 l/m W-NW 0,7 km/h (0 Bft)
22.07.2009 06:00 14,9 C 91 % 1009,8 hPa 0,0 l/m O-NO 7,5 km/h (2 Bft)
22.07.2009 07:00 16,4 C 87 % 1009,6 hPa 0,0 l/m O-SO 4,3 km/h (1 Bft)
22.07.2009 08:00 18,4 C 83 % 1010,5 hPa 0,0 l/m S-SW 6,4 km/h (2 Bft)
22.07.2009 09:00 21,3 C 73 % 1011,3 hPa 0,0 l/m SW 9,6 km/h (2 Bft)
22.07.2009 10:00 21,9 C 64 % 1011,6 hPa 0,0 l/m W 12,3 km/h (3 Bft)
22.07.2009 11:00 21,6 C 70 % 1012,7 hPa 0,0 l/m W-SW 13,6 km/h (3 Bft)
22.07.2009 12:00 21,1 C 72 % 1012,9 hPa 0,0 l/m W-SW 17,2 km/h (3 Bft)
22.07.2009 13:00 21,7 C 68 % 1012,7 hPa 0,0 l/m S-SW 20,1 km/h (4 Bft)
22.07.2009 14:00 22,2 C 65 % 1011,7 hPa 0,0 l/m S-SW 20,0 km/h (4 Bft)
22.07.2009 15:00 23,1 C 61 % 1010,1 hPa 0,0 l/m S-SW 26,7 km/h (4 Bft)
22.07.2009 16:00 24,0 C 59 % 1010,0 hPa 0,0 l/m SW 23,3 km/h (4 Bft)
22.07.2009 17:00 24,6 C 58 % 1009,4 hPa 0,0 l/m SW 16,9 km/h (3 Bft)
22.07.2009 18:00 24,8 C 57 % 1008,4 hPa 0,0 l/m S-SW 7,2 km/h (2 Bft)
22.07.2009 19:00 23,2 C 72 % 1007,9 hPa 0,0 l/m NW 3,2 km/h (1 Bft)
22.07.2009 20:00 21,8 C 80 % 1007,7 hPa 0,0 l/m NW 1,5 km/h (1 Bft)
22.07.2009 21:00 19,9 C 86 % 1007,4 hPa 0,0 l/m N 2,4 km/h (1 Bft)
22.07.2009 22:00 18,9 C 87 % 1007,2 hPa 0,0 l/m W-NW 3,2 km/h (1 Bft)
22.07.2009 23:00 18,4 C 88 % 1007,2 hPa 0,0 l/m W 4,3 km/h (1 Bft)
23.07.2009 00:00 18,4 C 86 % 1007,0 hPa 0,0 l/m N-NW 3,2 km/h (1 Bft)
23.07.2009 01:00 17,2 C 88 % 1006,6 hPa 0,0 l/m N 4,2 km/h (1 Bft)
23.07.2009 02:00 17,5 C 85 % 1006,3 hPa 0,0 l/m N-NW 5,5 km/h (1 Bft)
23.07.2009 03:00 16,4 C 90 % 1005,8 hPa 0,0 l/m N 1,5 km/h (1 Bft)
23.07.2009 04:00 16,4 C 91 % 1005,2 hPa 0,0 l/m N 1,9 km/h (1 Bft)
23.07.2009 05:00 16,8 C 89 % 1005,1 hPa 0,0 l/m N 6,4 km/h (2 Bft)
23.07.2009 06:00 17,2 C 88 % 1004,9 hPa 0,0 l/m W 5,7 km/h (1 Bft)
23.07.2009 07:00 17,4 C 88 % 1004,3 hPa 0,0 l/m SW 2,1 km/h (1 Bft)
23.07.2009 08:00 20,1 C 76 % 1003,5 hPa 0,0 l/m S-SW 8,8 km/h (2 Bft)
23.07.2009 09:00 24,4 C 57 % 1003,6 hPa 0,0 l/m S-SW 19,3 km/h (3 Bft)
23.07.2009 10:00 27,5 C 48 % 1003,7 hPa 0,0 l/m SW 21,3 km/h (4 Bft)
23.07.2009 11:00 28,2 C 50 % 1004,3 hPa 0,0 l/m W-NW 21,6 km/h (4 Bft)
23.07.2009 12:00 29,2 C 44 % 1004,0 hPa 0,0 l/m W-NW 18,6 km/h (3 Bft)
23.07.2009 13:00 28,2 C 46 % 1004,7 hPa 0,0 l/m W 25,2 km/h (4 Bft)
23.07.2009 14:00 26,2 C 49 % 1006,2 hPa 0,0 l/m W-NW 38,8 km/h (5 Bft)
23.07.2009 15:00 23,9 C 61 % 1006,7 hPa 0,0 l/m N-NW 26,7 km/h (4 Bft)
23.07.2009 16:00 22,0 C 69 % 1006,6 hPa 0,0 l/m N 10,7 km/h (2 Bft)
23.07.2009 17:00 19,6 C 82 % 1007,6 hPa 5,0 l/m N 10,5 km/h (2 Bft)
23.07.2009 18:00 17,8 C 92 % 1007,5 hPa 0,8 l/m W-SW 7,8 km/h (2 Bft)
23.07.2009 19:00 17,4 C 94 % 1009,7 hPa 4,8 l/m W-SW 19,7 km/h (3 Bft)
23.07.2009 20:00 17,2 C 94 % 1009,5 hPa 0,0 l/m SW 19,6 km/h (3 Bft)
23.07.2009 21:00 16,9 C 94 % 1011,0 hPa 0,0 l/m SW 21,7 km/h (4 Bft)
23.07.2009 22:00 16,3 C 95 % 1011,9 hPa 0,2 l/m SW 16,1 km/h (3 Bft)
23.07.2009 23:00 16,0 C 96 % 1012,2 hPa 0,0 l/m SW 18,5 km/h (3 Bft)
24.07.2009 00:00 15,4 C 95 % 1012,9 hPa 0,0 l/m W-SW 8,2 km/h (2 Bft)
24.07.2009 01:00 15,3 C 93 % 1013,4 hPa 0,0 l/m W-SW 18,8 km/h (3 Bft)
24.07.2009 02:00 15,7 C 89 % 1013,8 hPa 0,0 l/m W 21,7 km/h (4 Bft)
24.07.2009 03:00 15,2 C 89 % 1014,0 hPa 0,0 l/m SW 16,5 km/h (3 Bft)
24.07.2009 04:00 14,4 C 92 % 1014,3 hPa 0,0 l/m W-SW 7,1 km/h (2 Bft)
24.07.2009 05:00 13,8 C 95 % 1014,5 hPa 0,0 l/m W-SW 7,8 km/h (2 Bft)
24.07.2009 06:00 13,9 C 96 % 1014,7 hPa 0,0 l/m SW 7,1 km/h (2 Bft)
24.07.2009 07:00 15,5 C 95 % 1014,6 hPa 0,0 l/m SW 9,9 km/h (2 Bft)
24.07.2009 08:00 17,9 C 86 % 1014,5 hPa 0,0 l/m S-SW 14,2 km/h (3 Bft)
24.07.2009 09:00 19,6 C 78 % 1014,4 hPa 0,0 l/m W 17,3 km/h (3 Bft)
24.07.2009 10:00 20,9 C 69 % 1014,5 hPa 0,0 l/m W-SW 19,4 km/h (3 Bft)
24.07.2009 11:00 21,8 C 62 % 1014,4 hPa 0,0 l/m W 22,1 km/h (4 Bft)
24.07.2009 12:00 22,7 C 58 % 1014,2 hPa 0,0 l/m W 20,0 km/h (4 Bft)
24.07.2009 13:00 22,9 C 57 % 1013,7 hPa 0,0 l/m W-SW 13,4 km/h (3 Bft)
24.07.2009 14:00 24,3 C 51 % 1013,3 hPa 0,0 l/m W-SW 17,3 km/h (3 Bft)
24.07.2009 15:00 23,9 C 53 % 1013,0 hPa 0,0 l/m W 15,8 km/h (3 Bft)
24.07.2009 16:00 22,9 C 60 % 1012,9 hPa 0,0 l/m W-SW 10,3 km/h (2 Bft)
24.07.2009 17:00 20,5 C 76 % 1013,0 hPa 0,4 l/m W-NW 9,1 km/h (2 Bft)
24.07.2009 18:00 19,0 C 83 % 1012,9 hPa 0,0 l/m NW 5,3 km/h (1 Bft)
24.07.2009 19:00 18,1 C 88 % 1013,1 hPa 0,0 l/m S-SW 4,0 km/h (1 Bft)
24.07.2009 20:00 17,0 C 85 % 1014,8 hPa 4,2 l/m W-SW 14,1 km/h (3 Bft)
24.07.2009 21:00 15,7 C 93 % 1015,6 hPa 0,0 l/m W-SW 16,2 km/h (3 Bft)
24.07.2009 22:00 15,1 C 93 % 1017,0 hPa 4,4 l/m W-SW 18,2 km/h (3 Bft)
24.07.2009 23:00 14,8 C 94 % 1017,3 hPa 0,8 l/m W-SW 7,2 km/h (2 Bft)
25.07.2009 00:00 14,2 C 95 % 1017,8 hPa 0,0 l/m W-SW 9,9 km/h (2 Bft)
25.07.2009 01:00 13,9 C 96 % 1018,4 hPa 0,0 l/m W-SW 12,6 km/h (3 Bft)
25.07.2009 02:00 13,7 C 95 % 1019,0 hPa 0,0 l/m W-SW 13,0 km/h (3 Bft)
25.07.2009 03:00 13,1 C 94 % 1019,4 hPa 0,0 l/m SW 13,4 km/h (3 Bft)
25.07.2009 04:00 12,5 C 95 % 1019,6 hPa 0,0 l/m W-SW 15,0 km/h (3 Bft)
25.07.2009 05:00 12,6 C 95 % 1020,0 hPa 0,0 l/m W-SW 14,6 km/h (3 Bft)
25.07.2009 06:00 12,5 C 94 % 1020,3 hPa 0,0 l/m W-SW 12,5 km/h (3 Bft)
25.07.2009 07:00 13,0 C 93 % 1020,8 hPa 0,0 l/m SW 15,3 km/h (3 Bft)
25.07.2009 08:00 13,4 C 91 % 1021,1 hPa 0,0 l/m W-SW 18,2 km/h (3 Bft)
25.07.2009 09:00 14,4 C 88 % 1021,5 hPa 0,0 l/m W-SW 18,4 km/h (3 Bft)
25.07.2009 10:00 16,1 C 79 % 1021,7 hPa 0,0 l/m W-SW 21,6 km/h (4 Bft)
25.07.2009 11:00 17,0 C 75 % 1021,9 hPa 0,0 l/m SW 19,8 km/h (4 Bft)
25.07.2009 12:00 17,1 C 73 % 1022,1 hPa 0,6 l/m W 18,3 km/h (3 Bft)
25.07.2009 13:00 17,4 C 74 % 1022,3 hPa 0,2 l/m W-NW 18,2 km/h (3 Bft)
25.07.2009 14:00 17,1 C 65 % 1022,9 hPa 0,0 l/m W 22,3 km/h (4 Bft)
25.07.2009 15:00 18,6 C 57 % 1022,5 hPa 0,0 l/m W-NW 21,0 km/h (4 Bft)
25.07.2009 16:00 18,6 C 61 % 1022,6 hPa 0,0 l/m W-NW 13,6 km/h (3 Bft)
25.07.2009 17:00 19,6 C 56 % 1022,4 hPa 0,0 l/m W-SW 15,4 km/h (3 Bft)
25.07.2009 18:00 19,8 C 52 % 1022,4 hPa 0,0 l/m W-NW 17,3 km/h (3 Bft)
25.07.2009 19:00 19,0 C 54 % 1022,6 hPa 0,0 l/m W-NW 12,5 km/h (3 Bft)
25.07.2009 20:00 17,2 C 65 % 1022,9 hPa 0,0 l/m W-NW 6,3 km/h (2 Bft)
25.07.2009 21:00 14,2 C 82 % 1023,4 hPa 0,0 l/m N 0,8 km/h (0 Bft)
25.07.2009 22:00 13,1 C 83 % 1023,8 hPa 0,0 l/m W-NW 4,0 km/h (1 Bft)
25.07.2009 23:00 12,3 C 88 % 1024,1 hPa 0,0 l/m SW 1,6 km/h (1 Bft)
26.07.2009 00:00 12,3 C 90 % 1024,2 hPa 0,0 l/m N 0,4 km/h (0 Bft)
26.07.2009 01:00 12,1 C 91 % 1024,1 hPa 0,0 l/m N 0,3 km/h (0 Bft)
26.07.2009 02:00 11,7 C 92 % 1023,9 hPa 0,0 l/m N 0,4 km/h (0 Bft)
26.07.2009 03:00 11,2 C 93 % 1023,5 hPa 0,0 l/m N 0,4 km/h (0 Bft)
26.07.2009 04:00 10,3 C 95 % 1023,1 hPa 0,0 l/m N 0,4 km/h (0 Bft)
26.07.2009 05:00 9,8 C 95 % 1023,1 hPa 0,0 l/m NW 3,3 km/h (1 Bft)
26.07.2009 06:00 9,5 C 96 % 1023,3 hPa 0,0 l/m N 1,1 km/h (0 Bft)
26.07.2009 07:00 11,3 C 93 % 1023,0 hPa 0,0 l/m N 1,7 km/h (1 Bft)
26.07.2009 08:00 14,5 C 80 % 1022,8 hPa 0,0 l/m O 2,4 km/h (1 Bft)
26.07.2009 09:00 17,1 C 69 % 1022,5 hPa 0,0 l/m O-NO 6,3 km/h (2 Bft)
26.07.2009 10:00 18,7 C 58 % 1022,0 hPa 0,0 l/m NO 9,3 km/h (2 Bft)
26.07.2009 11:00 19,8 C 55 % 1021,6 hPa 0,0 l/m O 9,6 km/h (2 Bft)
26.07.2009 12:00 20,8 C 50 % 1021,1 hPa 0,0 l/m N-NO 9,4 km/h (2 Bft)
26.07.2009 13:00 21,5 C 44 % 1020,7 hPa 0,0 l/m N-NO 7,1 km/h (2 Bft)
26.07.2009 14:00 22,5 C 40 % 1020,2 hPa 0,0 l/m S-SW 8,4 km/h (2 Bft)
26.07.2009 15:00 22,8 C 40 % 1019,7 hPa 0,0 l/m SO 9,0 km/h (2 Bft)
26.07.2009 16:00 23,2 C 39 % 1019,5 hPa 0,0 l/m NO 8,0 km/h (2 Bft)
26.07.2009 17:00 23,4 C 39 % 1018,9 hPa 0,0 l/m O-NO 8,0 km/h (2 Bft)
26.07.2009 18:00 23,0 C 37 % 1018,4 hPa 0,0 l/m S-SO 5,9 km/h (2 Bft)
26.07.2009 19:00 22,0 C 44 % 1018,0 hPa 0,0 l/m O-SO 2,9 km/h (1 Bft)
26.07.2009 20:00 18,5 C 64 % 1017,8 hPa 0,0 l/m N 1,3 km/h (1 Bft)
26.07.2009 21:00 16,4 C 72 % 1017,6 hPa 0,0 l/m N 1,6 km/h (1 Bft)
26.07.2009 22:00 15,0 C 76 % 1017,7 hPa 0,0 l/m N 1,2 km/h (1 Bft)
26.07.2009 23:00 13,8 C 81 % 1017,5 hPa 0,0 l/m NO 2,8 km/h (1 Bft)
Min-Datum _ 26.07.09 26.07.09 23.07.09 - - 20.07.09
_ Min-Zeit 06:30 18:30 08:30 - - 04:05
Minimum _ 9,3 C 34 % 1003,3 hPa - - 0,0 km/h (0 Bft)
Max-Datum _ 23.07.09 21.07.09 25.07.09 23.07.09 - 23.07.09
_ Max-Zeit 12:35 06:25 23:55 17:40 - 14:15
Maximum _ 30,0 C 97 % 1024,3 hPa 5,0 l/m - 45,1 km/h
W (6 Bft)
Durchschnitt _ 18,3 C 75 % 1015,1 hPa #21,4 l/m W-SW 10,5 km/h (2 Bft)